createdAt,value
2019-01-26T00:00:30.186Z,27.39
2019-01-26T00:01:30.134Z,27.24
2019-01-26T00:02:30.138Z,27.32
2019-01-26T00:03:30.142Z,27.25
2019-01-26T00:04:30.145Z,27.28
2019-01-26T00:05:30.150Z,27.25
2019-01-26T00:06:30.157Z,27.27
2019-01-26T00:07:30.155Z,27.27
2019-01-26T00:08:30.161Z,27.27
2019-01-26T00:09:30.164Z,27.27
2019-01-26T00:10:30.164Z,27.21
2019-01-26T00:11:30.169Z,27.17
2019-01-26T00:12:30.172Z,27.22
2019-01-26T00:13:30.177Z,27.29
2019-01-26T00:14:30.177Z,27.29
2019-01-26T00:15:30.195Z,27.25
2019-01-26T00:16:30.185Z,27.29
2019-01-26T00:17:30.189Z,27.24
2019-01-26T00:18:31.033Z,27.19
2019-01-26T00:19:30.195Z,27.27
2019-01-26T00:20:30.200Z,27.21
2019-01-26T00:21:30.203Z,27.28
2019-01-26T00:22:30.205Z,27.19
2019-01-26T00:23:30.210Z,27.27
2019-01-26T00:24:30.214Z,27.19
2019-01-26T00:25:30.222Z,27.18
2019-01-26T00:26:30.223Z,27.27
2019-01-26T00:27:30.225Z,27.24
2019-01-26T00:28:30.226Z,27.25
2019-01-26T00:29:30.229Z,27.36
2019-01-26T00:30:30.287Z,27.25
2019-01-26T00:31:30.234Z,27.22
2019-01-26T00:32:30.240Z,27.22
2019-01-26T00:33:30.243Z,27.28
2019-01-26T00:34:30.245Z,27.22
2019-01-26T00:35:30.251Z,27.25
2019-01-26T00:36:30.253Z,27.21
2019-01-26T00:37:30.256Z,27.22
2019-01-26T00:38:30.257Z,27.27
2019-01-26T00:39:30.262Z,27.21
2019-01-26T00:40:30.266Z,27.27
2019-01-26T00:41:30.269Z,27.25
2019-01-26T00:42:30.274Z,27.27
2019-01-26T00:43:30.275Z,27.27
2019-01-26T00:44:30.279Z,27.27
2019-01-26T00:45:30.284Z,27.28
2019-01-26T00:46:30.284Z,27.28
2019-01-26T00:47:30.289Z,27.27
2019-01-26T00:48:30.302Z,27.21
2019-01-26T00:49:30.401Z,27.24
2019-01-26T00:50:30.300Z,27.24
2019-01-26T00:51:30.306Z,27.22
2019-01-26T00:52:30.306Z,27.21
2019-01-26T00:53:30.310Z,27.25
2019-01-26T00:54:30.314Z,27.21
2019-01-26T00:55:30.315Z,27.22
2019-01-26T00:56:30.317Z,27.22
2019-01-26T00:57:30.323Z,27.21
2019-01-26T00:58:30.326Z,27.21
2019-01-26T00:59:30.329Z,27.28
2019-01-26T01:00:30.334Z,27.24
2019-01-26T01:01:30.338Z,27.19
2019-01-26T01:02:30.343Z,27.25
2019-01-26T01:03:30.353Z,27.27
2019-01-26T01:04:30.351Z,27.31
2019-01-26T01:05:30.350Z,27.21
2019-01-26T01:06:30.351Z,27.22
2019-01-26T01:07:30.357Z,27.22
2019-01-26T01:08:30.360Z,27.24
2019-01-26T01:09:30.362Z,27.27
2019-01-26T01:10:30.369Z,27.21
2019-01-26T01:11:30.530Z,27.25
2019-01-26T01:12:30.374Z,27.25
2019-01-26T01:13:30.377Z,27.25
2019-01-26T01:14:30.380Z,27.27
2019-01-26T01:15:30.384Z,27.31
2019-01-26T01:16:35.814Z,27.22
2019-01-26T01:17:30.390Z,27.25
2019-01-26T01:18:30.392Z,27.29
2019-01-26T01:19:30.397Z,27.24
2019-01-26T01:20:30.400Z,27.24
2019-01-26T01:21:30.403Z,27.19
2019-01-26T01:22:30.404Z,27.27
2019-01-26T01:23:30.426Z,27.28
2019-01-26T01:24:30.414Z,27.24
2019-01-26T01:25:30.418Z,27.28
2019-01-26T01:26:30.420Z,27.24
2019-01-26T01:27:30.428Z,27.19
2019-01-26T01:28:30.427Z,27.29
2019-01-26T01:29:30.430Z,27.29
2019-01-26T01:30:30.437Z,27.22
2019-01-26T01:31:30.434Z,27.36
2019-01-26T01:32:30.440Z,27.25
2019-01-26T01:33:30.444Z,27.28
2019-01-26T01:34:30.448Z,27.25
2019-01-26T01:35:30.450Z,27.22
2019-01-26T01:36:30.452Z,27.28
2019-01-26T01:37:30.456Z,27.19
2019-01-26T01:38:30.460Z,27.24
2019-01-26T01:39:30.493Z,27.25
2019-01-26T01:40:30.467Z,27.27
2019-01-26T01:41:30.470Z,27.22
2019-01-26T01:42:30.473Z,27.22
2019-01-26T01:43:30.477Z,27.27
2019-01-26T01:44:30.530Z,27.22
2019-01-26T01:45:30.484Z,27.22
2019-01-26T01:46:30.489Z,27.22
2019-01-26T01:47:30.490Z,27.22
2019-01-26T01:48:30.495Z,27.25
2019-01-26T01:49:30.497Z,27.22
2019-01-26T01:50:30.500Z,27.25
2019-01-26T01:51:30.503Z,27.27
2019-01-26T01:52:30.545Z,27.28
2019-01-26T01:53:30.511Z,27.22
2019-01-26T01:54:30.514Z,27.25
2019-01-26T01:55:30.517Z,27.21
2019-01-26T01:56:30.525Z,27.25
2019-01-26T01:57:30.525Z,27.25
2019-01-26T01:58:30.546Z,27.24
2019-01-26T01:59:30.530Z,27.22
2019-01-26T02:00:30.534Z,27.25
2019-01-26T02:01:30.538Z,27.25
2019-01-26T02:02:30.540Z,27.29
2019-01-26T02:03:30.544Z,27.19
2019-01-26T02:04:30.548Z,27.27
2019-01-26T02:05:30.551Z,27.29
2019-01-26T02:06:30.550Z,27.25
2019-01-26T02:07:30.568Z,27.29
2019-01-26T02:08:30.562Z,27.25
2019-01-26T02:09:30.565Z,27.22
2019-01-26T02:10:30.572Z,27.24
2019-01-26T02:11:30.569Z,27.25
2019-01-26T02:12:30.576Z,27.22
2019-01-26T02:13:30.578Z,27.25
2019-01-26T02:14:30.580Z,27.24
2019-01-26T02:15:30.584Z,27.21
2019-01-26T02:16:30.587Z,27.21
2019-01-26T02:17:30.591Z,27.25
2019-01-26T02:18:30.595Z,27.22
2019-01-26T02:19:30.604Z,27.28
2019-01-26T02:20:30.605Z,27.29
2019-01-26T02:21:30.606Z,27.24
2019-01-26T02:22:30.609Z,27.21
2019-01-26T02:23:30.611Z,27.21
2019-01-26T02:24:30.815Z,27.24
2019-01-26T02:25:30.618Z,27.19
2019-01-26T02:26:30.635Z,27.28
2019-01-26T02:27:30.625Z,27.29
2019-01-26T02:28:30.628Z,27.24
2019-01-26T02:29:30.630Z,27.31
2019-01-26T02:30:30.635Z,27.25
2019-01-26T02:31:30.635Z,27.21
2019-01-26T02:32:30.641Z,27.24
2019-01-26T02:33:30.649Z,27.31
2019-01-26T02:34:30.648Z,27.24
2019-01-26T02:35:30.652Z,27.24
2019-01-26T02:36:30.655Z,27.22
2019-01-26T02:37:30.659Z,27.21
2019-01-26T02:38:30.661Z,27.24
2019-01-26T02:39:30.667Z,27.22
2019-01-26T02:40:30.670Z,27.25
2019-01-26T02:41:30.669Z,27.27
2019-01-26T02:42:30.674Z,27.21
2019-01-26T02:43:30.679Z,27.21
2019-01-26T02:44:30.684Z,27.31
2019-01-26T02:45:30.747Z,27.21
2019-01-26T02:46:30.837Z,27.27
2019-01-26T02:47:30.690Z,27.21
2019-01-26T02:48:30.696Z,27.22
2019-01-26T02:49:30.700Z,27.25
2019-01-26T02:50:30.701Z,27.28
2019-01-26T02:51:30.707Z,27.19
2019-01-26T02:52:30.712Z,27.22
2019-01-26T02:53:30.715Z,27.29
2019-01-26T02:54:30.715Z,27.24
2019-01-26T02:55:30.719Z,27.27
2019-01-26T02:56:30.721Z,27.27
2019-01-26T02:57:30.725Z,27.21
2019-01-26T02:58:30.727Z,27.21
2019-01-26T02:59:30.732Z,27.25
2019-01-26T03:00:30.734Z,27.27
2019-01-26T03:01:30.736Z,27.22
2019-01-26T03:02:30.742Z,27.21
2019-01-26T03:03:30.747Z,27.21
2019-01-26T03:04:30.751Z,27.24
2019-01-26T03:05:30.752Z,27.19
2019-01-26T03:06:30.761Z,27.22
2019-01-26T03:07:30.759Z,27.19
2019-01-26T03:08:30.762Z,27.18
2019-01-26T03:09:30.765Z,27.22
2019-01-26T03:10:30.768Z,27.25
2019-01-26T03:11:30.772Z,27.22
2019-01-26T03:12:30.775Z,27.21
2019-01-26T03:13:30.778Z,27.29
2019-01-26T03:14:30.782Z,27.22
2019-01-26T03:15:30.786Z,27.24
2019-01-26T03:16:30.789Z,27.25
2019-01-26T03:17:30.793Z,27.21
2019-01-26T03:18:30.794Z,27.24
2019-01-26T03:19:30.799Z,27.24
2019-01-26T03:20:30.801Z,27.24
2019-01-26T03:21:30.806Z,27.27
2019-01-26T03:22:30.809Z,27.21
2019-01-26T03:23:30.811Z,27.24
2019-01-26T03:24:30.815Z,27.27
2019-01-26T03:25:30.976Z,27.21
2019-01-26T03:26:30.828Z,27.22
2019-01-26T03:27:30.826Z,27.22
2019-01-26T03:28:30.830Z,27.18
2019-01-26T03:29:30.832Z,27.24
2019-01-26T03:30:30.849Z,27.24
2019-01-26T03:31:30.901Z,27.24
2019-01-26T03:32:30.943Z,27.31
2019-01-26T03:33:30.896Z,27.25
2019-01-26T03:34:30.850Z,27.28
2019-01-26T03:35:30.860Z,27.19
2019-01-26T03:36:30.855Z,27.24
2019-01-26T03:37:30.866Z,27.19
2019-01-26T03:38:30.865Z,27.27
2019-01-26T03:39:30.866Z,27.25
2019-01-26T03:40:30.868Z,27.25
2019-01-26T03:41:30.870Z,27.18
2019-01-26T03:42:30.875Z,27.22
2019-01-26T03:43:30.877Z,27.21
2019-01-26T03:44:30.882Z,27.24
2019-01-26T03:45:30.885Z,27.22
2019-01-26T03:46:30.887Z,27.28
2019-01-26T03:47:30.894Z,27.24
2019-01-26T03:48:30.895Z,27.19
2019-01-26T03:49:30.898Z,27.21
2019-01-26T03:50:30.901Z,27.28
2019-01-26T03:51:30.911Z,27.25
2019-01-26T03:52:30.908Z,27.24
2019-01-26T03:53:30.915Z,27.19
2019-01-26T03:54:30.914Z,27.25
2019-01-26T03:55:30.921Z,27.21
2019-01-26T03:56:30.921Z,27.21
2019-01-26T03:57:30.927Z,27.22
2019-01-26T03:58:30.930Z,27.21
2019-01-26T03:59:30.932Z,27.19
2019-01-26T04:00:30.935Z,27.28
2019-01-26T04:01:30.939Z,27.28
2019-01-26T04:02:30.941Z,27.25
2019-01-26T04:03:30.943Z,27.24
2019-01-26T04:04:30.951Z,27.17
2019-01-26T04:05:30.951Z,27.19
2019-01-26T04:06:30.960Z,27.25
2019-01-26T04:07:30.961Z,27.28
2019-01-26T04:08:30.959Z,27.21
2019-01-26T04:09:30.964Z,27.19
2019-01-26T04:10:30.968Z,27.22
2019-01-26T04:11:30.971Z,27.24
2019-01-26T04:12:30.973Z,27.25
2019-01-26T04:13:30.979Z,27.18
2019-01-26T04:14:31.131Z,27.21
2019-01-26T04:15:30.985Z,27.28
2019-01-26T04:16:31.007Z,27.28
2019-01-26T04:17:31.001Z,27.24
2019-01-26T04:18:30.994Z,27.27
2019-01-26T04:19:30.996Z,27.19
2019-01-26T04:20:31.005Z,27.22
2019-01-26T04:21:31.004Z,27.18
2019-01-26T04:22:31.007Z,27.22
2019-01-26T04:23:31.010Z,27.21
2019-01-26T04:24:31.018Z,27.25
2019-01-26T04:25:31.019Z,27.21
2019-01-26T04:26:31.020Z,27.21
2019-01-26T04:27:31.023Z,27.21
2019-01-26T04:28:31.028Z,27.24
2019-01-26T04:29:31.031Z,27.24
2019-01-26T04:30:31.033Z,27.25
2019-01-26T04:31:31.037Z,27.24
2019-01-26T04:32:31.039Z,27.19
2019-01-26T04:33:31.043Z,27.22
2019-01-26T04:34:31.046Z,27.17
2019-01-26T04:35:31.050Z,27.17
2019-01-26T04:36:31.054Z,27.25
2019-01-26T04:37:31.057Z,27.13
2019-01-26T04:38:31.060Z,27.22
2019-01-26T04:39:31.064Z,27.19
2019-01-26T04:40:31.069Z,27.22
2019-01-26T04:41:31.076Z,27.21
2019-01-26T04:42:31.078Z,27.21
2019-01-26T04:43:31.078Z,27.19
2019-01-26T04:44:31.082Z,27.19
2019-01-26T04:45:31.141Z,27.18
2019-01-26T04:46:31.087Z,27.13
2019-01-26T04:47:31.361Z,27.18
2019-01-26T04:48:31.095Z,27.19
2019-01-26T04:49:31.097Z,27.25
2019-01-26T04:50:31.102Z,27.18
2019-01-26T04:51:31.103Z,27.25
2019-01-26T04:52:31.106Z,27.22
2019-01-26T04:53:31.117Z,27.25
2019-01-26T04:54:31.124Z,27.19
2019-01-26T04:55:31.120Z,27.21
2019-01-26T04:56:31.119Z,27.18
2019-01-26T04:57:31.123Z,27.19
2019-01-26T04:58:31.128Z,27.21
2019-01-26T04:59:31.129Z,27.19
2019-01-26T05:00:31.183Z,27.25
2019-01-26T05:01:31.137Z,27.22
2019-01-26T05:02:31.189Z,27.22
2019-01-26T05:03:31.144Z,27.21
2019-01-26T05:04:31.147Z,27.17
2019-01-26T05:05:31.149Z,27.21
2019-01-26T05:06:31.154Z,27.25
2019-01-26T05:07:31.156Z,27.18
2019-01-26T05:08:31.160Z,27.19
2019-01-26T05:09:31.213Z,27.25
2019-01-26T05:10:31.173Z,27.19
2019-01-26T05:11:31.169Z,27.24
2019-01-26T05:12:31.175Z,27.25
2019-01-26T05:13:31.176Z,27.18
2019-01-26T05:14:31.179Z,27.19
2019-01-26T05:15:31.232Z,27.22
2019-01-26T05:16:31.197Z,27.13
2019-01-26T05:17:39.026Z,27.24
2019-01-26T05:18:31.195Z,27.21
2019-01-26T05:19:31.196Z,27.25
2019-01-26T05:20:31.199Z,27.24
2019-01-26T05:21:31.201Z,27.21
2019-01-26T05:22:31.216Z,27.25
2019-01-26T05:23:31.211Z,27.19
2019-01-26T05:24:31.212Z,27.12
2019-01-26T05:25:31.216Z,27.17
2019-01-26T05:26:31.218Z,27.25
2019-01-26T05:27:31.220Z,27.22
2019-01-26T05:28:31.228Z,27.18
2019-01-26T05:29:31.231Z,27.22
2019-01-26T05:30:31.281Z,27.19
2019-01-26T05:31:31.235Z,27.22
2019-01-26T05:32:31.237Z,27.19
2019-01-26T05:33:31.242Z,27.18
2019-01-26T05:34:31.245Z,27.19
2019-01-26T05:35:31.248Z,27.19
2019-01-26T05:36:31.301Z,27.22
2019-01-26T05:37:31.254Z,27.28
2019-01-26T05:38:31.260Z,27.21
2019-01-26T05:39:31.270Z,27.19
2019-01-26T05:40:31.270Z,27.18
2019-01-26T05:41:31.272Z,27.22
2019-01-26T05:42:31.272Z,27.24
2019-01-26T05:43:31.275Z,27.19
2019-01-26T05:44:31.283Z,27.18
2019-01-26T05:45:31.334Z,27.24
2019-01-26T05:46:31.303Z,27.21
2019-01-26T05:47:31.288Z,27.21
2019-01-26T05:48:31.291Z,27.22
2019-01-26T05:49:31.295Z,27.19
2019-01-26T05:50:31.297Z,27.24
2019-01-26T05:51:31.401Z,27.19
2019-01-26T05:52:31.305Z,27.22
2019-01-26T05:53:31.308Z,27.18
2019-01-26T05:54:31.316Z,27.24
2019-01-26T05:55:31.314Z,27.19
2019-01-26T05:56:31.323Z,27.21
2019-01-26T05:57:31.321Z,27.21
2019-01-26T05:58:31.323Z,27.24
2019-01-26T05:59:31.327Z,27.21
2019-01-26T06:00:31.330Z,27.25
2019-01-26T06:01:31.357Z,27.14
2019-01-26T06:02:31.337Z,27.21
2019-01-26T06:03:31.350Z,27.18
2019-01-26T06:04:31.454Z,27.13
2019-01-26T06:05:31.348Z,27.24
2019-01-26T06:06:31.350Z,27.19
2019-01-26T06:07:31.355Z,27.21
2019-01-26T06:08:31.359Z,27.14
2019-01-26T06:09:31.362Z,27.14
2019-01-26T06:10:31.367Z,27.10
2019-01-26T06:11:31.367Z,27.14
2019-01-26T06:12:31.372Z,27.14
2019-01-26T06:13:31.375Z,27.13
2019-01-26T06:14:31.377Z,27.10
2019-01-26T06:15:31.379Z,27.12
2019-01-26T06:16:31.383Z,27.13
2019-01-26T06:17:31.385Z,27.10
2019-01-26T06:18:31.388Z,27.14
2019-01-26T06:19:31.500Z,27.13
2019-01-26T06:20:31.397Z,27.13
2019-01-26T06:21:31.400Z,27.09
2019-01-26T06:22:31.408Z,27.18
2019-01-26T06:23:31.406Z,27.13
2019-01-26T06:24:31.409Z,27.12
2019-01-26T06:25:31.413Z,27.09
2019-01-26T06:26:31.430Z,27.13
2019-01-26T06:27:31.469Z,27.12
2019-01-26T06:28:31.421Z,27.10
2019-01-26T06:29:31.425Z,27.21
2019-01-26T06:30:31.428Z,27.13
2019-01-26T06:31:31.437Z,27.14
2019-01-26T06:32:31.434Z,27.07
2019-01-26T06:33:31.439Z,27.06
2019-01-26T06:34:32.193Z,27.14
2019-01-26T06:35:31.445Z,27.18
2019-01-26T06:36:31.448Z,27.14
2019-01-26T06:37:31.451Z,27.18
2019-01-26T06:38:31.453Z,27.18
2019-01-26T06:39:31.456Z,27.17
2019-01-26T06:40:31.460Z,27.09
2019-01-26T06:41:31.463Z,27.09
2019-01-26T06:42:31.466Z,27.14
2019-01-26T06:43:31.470Z,27.19
2019-01-26T06:44:31.473Z,27.13
2019-01-26T06:45:31.476Z,27.17
2019-01-26T06:46:31.486Z,27.14
2019-01-26T06:47:31.485Z,27.12
2019-01-26T06:48:31.486Z,27.03
2019-01-26T06:49:31.488Z,27.14
2019-01-26T06:50:31.492Z,27.14
2019-01-26T06:51:31.497Z,27.06
2019-01-26T06:52:31.498Z,27.14
2019-01-26T06:53:31.503Z,27.04
2019-01-26T06:54:31.505Z,27.07
2019-01-26T06:55:31.508Z,27.06
2019-01-26T06:56:31.524Z,27.07
2019-01-26T06:57:31.515Z,27.13
2019-01-26T06:58:32.226Z,27.06
2019-01-26T06:59:31.522Z,27.06
2019-01-26T07:00:31.525Z,27.04
2019-01-26T07:01:31.530Z,27.13
2019-01-26T07:02:31.530Z,27.10
2019-01-26T07:03:31.533Z,27.12
2019-01-26T07:04:31.548Z,27.13
2019-01-26T07:05:31.541Z,27.09
2019-01-26T07:06:31.543Z,27.07
2019-01-26T07:07:31.598Z,27.09
2019-01-26T07:08:31.550Z,27.10
2019-01-26T07:09:31.562Z,27.06
2019-01-26T07:10:31.560Z,27.13
2019-01-26T07:11:31.566Z,27.12
2019-01-26T07:12:31.569Z,27.12
2019-01-26T07:13:31.565Z,27.06
2019-01-26T07:14:31.570Z,27.09
2019-01-26T07:15:31.572Z,27.04
2019-01-26T07:16:31.573Z,27.04
2019-01-26T07:17:31.871Z,27.09
2019-01-26T07:18:31.582Z,27.12
2019-01-26T07:19:31.585Z,27.10
2019-01-26T07:20:31.588Z,27.12
2019-01-26T07:21:31.595Z,27.09
2019-01-26T07:22:31.594Z,27.07
2019-01-26T07:23:31.597Z,26.97
2019-01-26T07:24:31.600Z,27.12
2019-01-26T07:25:31.604Z,27.12
2019-01-26T07:26:31.604Z,27.09
2019-01-26T07:27:31.613Z,27.09
2019-01-26T07:28:31.613Z,27.07
2019-01-26T07:29:31.620Z,27.06
2019-01-26T07:30:31.622Z,27.09
2019-01-26T07:31:31.623Z,27.03
2019-01-26T07:32:31.627Z,27.06
2019-01-26T07:33:31.630Z,27.03
2019-01-26T07:34:31.637Z,27.06
2019-01-26T07:35:31.637Z,27.12
2019-01-26T07:36:31.640Z,27.03
2019-01-26T07:37:32.469Z,27.04
2019-01-26T07:38:31.645Z,27.04
2019-01-26T07:39:31.648Z,27.02
2019-01-26T07:40:31.653Z,27.02
2019-01-26T07:41:31.658Z,27.09
2019-01-26T07:42:31.657Z,27.02
2019-01-26T07:43:31.660Z,27.07
2019-01-26T07:44:31.665Z,26.94
2019-01-26T07:45:31.668Z,27.02
2019-01-26T07:46:31.671Z,27.02
2019-01-26T07:47:31.676Z,27.00
2019-01-26T07:48:31.678Z,27.04
2019-01-26T07:49:31.685Z,27.04
2019-01-26T07:50:31.682Z,26.92
2019-01-26T07:51:31.685Z,27.09
2019-01-26T07:52:31.691Z,27.09
2019-01-26T07:53:31.693Z,27.03
2019-01-26T07:54:31.700Z,27.03
2019-01-26T07:55:31.699Z,26.99
2019-01-26T07:56:31.701Z,27.03
2019-01-26T07:57:31.706Z,26.99
2019-01-26T07:58:31.709Z,27.04
2019-01-26T07:59:31.712Z,26.95
2019-01-26T08:00:31.717Z,27.03
2019-01-26T08:01:31.718Z,27.06
2019-01-26T08:02:31.721Z,27.07
2019-01-26T08:03:31.726Z,27.02
2019-01-26T08:04:32.280Z,26.97
2019-01-26T08:05:31.731Z,27.07
2019-01-26T08:06:31.734Z,27.09
2019-01-26T08:07:31.737Z,26.95
2019-01-26T08:08:31.741Z,26.99
2019-01-26T08:09:31.744Z,27.03
2019-01-26T08:10:31.746Z,27.07
2019-01-26T08:11:31.747Z,27.03
2019-01-26T08:12:31.755Z,27.02
2019-01-26T08:13:31.757Z,27.02
2019-01-26T08:14:31.766Z,27.09
2019-01-26T08:15:31.765Z,27.06
2019-01-26T08:16:31.766Z,27.00
2019-01-26T08:17:31.775Z,27.03
2019-01-26T08:18:31.772Z,27.03
2019-01-26T08:19:31.775Z,27.07
2019-01-26T08:20:31.780Z,27.10
2019-01-26T08:21:31.794Z,27.09
2019-01-26T08:22:31.792Z,27.12
2019-01-26T08:23:31.802Z,27.12
2019-01-26T08:24:31.791Z,27.07
2019-01-26T08:25:31.797Z,27.09
2019-01-26T08:26:31.797Z,27.07
2019-01-26T08:27:31.801Z,27.06
2019-01-26T08:28:31.806Z,27.09
2019-01-26T08:29:31.808Z,27.09
2019-01-26T08:30:31.810Z,27.04
2019-01-26T08:31:31.812Z,27.06
2019-01-26T08:32:31.816Z,27.03
2019-01-26T08:33:31.820Z,27.06
2019-01-26T08:34:31.823Z,27.10
2019-01-26T08:35:31.828Z,27.06
2019-01-26T08:36:31.829Z,27.12
2019-01-26T08:37:31.834Z,27.12
2019-01-26T08:38:31.887Z,27.04
2019-01-26T08:39:31.839Z,27.10
2019-01-26T08:40:31.899Z,27.10
2019-01-26T08:41:31.848Z,27.07
2019-01-26T08:42:31.850Z,27.09
2019-01-26T08:43:31.852Z,27.14
2019-01-26T08:44:31.855Z,27.07
2019-01-26T08:45:31.859Z,27.12
2019-01-26T08:46:31.862Z,27.03
2019-01-26T08:47:31.864Z,27.10
2019-01-26T08:48:31.878Z,27.07
2019-01-26T08:49:31.884Z,27.13
2019-01-26T08:50:31.875Z,27.10
2019-01-26T08:51:31.876Z,27.10
2019-01-26T08:52:31.881Z,27.09
2019-01-26T08:53:31.885Z,27.03
2019-01-26T08:54:31.889Z,27.09
2019-01-26T08:55:31.891Z,27.10
2019-01-26T08:56:31.893Z,27.09
2019-01-26T08:57:31.898Z,27.12
2019-01-26T08:58:31.900Z,27.09
2019-01-26T08:59:31.903Z,27.09
2019-01-26T09:00:31.907Z,27.06
2019-01-26T09:01:31.909Z,27.10
2019-01-26T09:02:31.917Z,27.07
2019-01-26T09:03:31.962Z,27.03
2019-01-26T09:04:31.929Z,27.03
2019-01-26T09:05:31.974Z,27.07
2019-01-26T09:06:31.977Z,27.10
2019-01-26T09:07:31.929Z,27.03
2019-01-26T09:08:31.933Z,27.04
2019-01-26T09:09:31.937Z,27.12
2019-01-26T09:10:31.940Z,27.06
2019-01-26T09:11:31.941Z,27.03
2019-01-26T09:12:31.945Z,27.03
2019-01-26T09:13:31.949Z,27.09
2019-01-26T09:14:32.051Z,27.09
2019-01-26T09:15:31.957Z,27.04
2019-01-26T09:16:31.960Z,27.07
2019-01-26T09:17:31.962Z,27.07
2019-01-26T09:18:38.561Z,27.07
2019-01-26T09:19:31.968Z,27.00
2019-01-26T09:20:31.975Z,27.12
2019-01-26T09:21:31.978Z,27.03
2019-01-26T09:22:31.978Z,27.07
2019-01-26T09:23:31.980Z,27.07
2019-01-26T09:24:31.984Z,27.10
2019-01-26T09:25:31.988Z,27.07
2019-01-26T09:26:31.990Z,27.07
2019-01-26T09:27:31.994Z,27.04
2019-01-26T09:28:32.049Z,27.02
2019-01-26T09:29:32.002Z,27.09
2019-01-26T09:30:32.003Z,27.00
2019-01-26T09:31:32.006Z,27.03
2019-01-26T09:32:32.008Z,27.04
2019-01-26T09:33:32.016Z,27.00
2019-01-26T09:34:32.018Z,27.07
2019-01-26T09:35:32.020Z,27.00
2019-01-26T09:36:32.024Z,27.03
2019-01-26T09:37:32.027Z,27.09
2019-01-26T09:38:32.030Z,27.09
2019-01-26T09:39:32.032Z,27.04
2019-01-26T09:40:32.034Z,27.06
2019-01-26T09:41:32.040Z,27.04
2019-01-26T09:42:32.041Z,27.12
2019-01-26T09:43:32.046Z,27.06
2019-01-26T09:44:32.050Z,27.06
2019-01-26T09:45:32.051Z,26.99
2019-01-26T09:46:32.053Z,27.12
2019-01-26T09:47:32.066Z,27.12
2019-01-26T09:48:32.064Z,27.10
2019-01-26T09:49:32.065Z,27.12
2019-01-26T09:50:32.068Z,27.10
2019-01-26T09:51:32.069Z,27.13
2019-01-26T09:52:32.076Z,27.04
2019-01-26T09:53:32.083Z,27.04
2019-01-26T09:54:32.084Z,27.12
2019-01-26T09:55:32.084Z,27.13
2019-01-26T09:56:32.089Z,27.04
2019-01-26T09:57:32.091Z,27.10
2019-01-26T09:58:32.094Z,27.12
2019-01-26T09:59:32.098Z,27.13
2019-01-26T10:00:32.102Z,27.13
2019-01-26T10:01:32.102Z,27.06
2019-01-26T10:02:32.107Z,27.13
2019-01-26T10:03:32.109Z,27.12
2019-01-26T10:04:32.118Z,27.03
2019-01-26T10:05:32.119Z,27.18
2019-01-26T10:06:32.119Z,27.06
2019-01-26T10:07:32.122Z,27.13
2019-01-26T10:08:32.126Z,27.13
2019-01-26T10:09:32.137Z,27.21
2019-01-26T10:10:32.141Z,27.24
2019-01-26T10:11:32.139Z,27.14
2019-01-26T10:12:32.142Z,27.13
2019-01-26T10:13:32.145Z,27.22
2019-01-26T10:14:32.146Z,27.27
2019-01-26T10:15:32.150Z,27.22
2019-01-26T10:16:32.154Z,27.25
2019-01-26T10:17:32.159Z,27.21
2019-01-26T10:18:32.161Z,27.25
2019-01-26T10:19:32.164Z,27.25
2019-01-26T10:20:32.169Z,27.19
2019-01-26T10:21:32.170Z,27.21
2019-01-26T10:22:32.173Z,27.27
2019-01-26T10:23:32.174Z,27.24
2019-01-26T10:24:32.180Z,27.28
2019-01-26T10:25:32.185Z,27.22
2019-01-26T10:26:32.182Z,27.18
2019-01-26T10:27:32.191Z,27.27
2019-01-26T10:28:32.195Z,27.29
2019-01-26T10:29:32.198Z,27.28
2019-01-26T10:30:32.199Z,27.19
2019-01-26T10:31:32.210Z,27.19
2019-01-26T10:32:32.207Z,27.32
2019-01-26T10:33:32.260Z,27.22
2019-01-26T10:34:32.221Z,27.18
2019-01-26T10:35:32.322Z,27.19
2019-01-26T10:36:32.220Z,27.36
2019-01-26T10:37:32.263Z,27.29
2019-01-26T10:38:32.226Z,27.28
2019-01-26T10:39:32.229Z,27.24
2019-01-26T10:40:32.234Z,27.19
2019-01-26T10:41:32.238Z,27.24
2019-01-26T10:42:32.244Z,27.24
2019-01-26T10:43:32.241Z,27.24
2019-01-26T10:44:32.247Z,27.29
2019-01-26T10:45:32.251Z,27.18
2019-01-26T10:46:32.253Z,27.24
2019-01-26T10:47:32.257Z,27.22
2019-01-26T10:48:32.263Z,27.27
2019-01-26T10:49:32.264Z,27.18
2019-01-26T10:50:32.267Z,27.29
2019-01-26T10:51:32.270Z,27.25
2019-01-26T10:52:32.274Z,27.27
2019-01-26T10:53:32.277Z,27.22
2019-01-26T10:54:32.292Z,27.24
2019-01-26T10:55:32.285Z,27.21
2019-01-26T10:56:32.294Z,27.22
2019-01-26T10:57:32.295Z,27.24
2019-01-26T10:58:32.296Z,27.21
2019-01-26T10:59:32.298Z,27.21
2019-01-26T11:00:32.298Z,27.19
2019-01-26T11:01:32.321Z,27.22
2019-01-26T11:02:32.304Z,27.17
2019-01-26T11:03:32.310Z,27.21
2019-01-26T11:04:32.314Z,27.18
2019-01-26T11:05:32.329Z,27.25
2019-01-26T11:06:32.320Z,27.25
2019-01-26T11:07:32.328Z,27.27
2019-01-26T11:08:32.327Z,27.18
2019-01-26T11:09:32.381Z,27.24
2019-01-26T11:10:32.337Z,27.25
2019-01-26T11:11:32.334Z,27.21
2019-01-26T11:12:32.340Z,27.19
2019-01-26T11:13:32.344Z,27.22
2019-01-26T11:14:32.348Z,27.22
2019-01-26T11:15:32.351Z,27.27
2019-01-26T11:16:32.356Z,27.21
2019-01-26T11:17:32.357Z,27.24
2019-01-26T11:18:32.363Z,27.24
2019-01-26T11:19:32.363Z,27.19
2019-01-26T11:20:32.367Z,27.24
2019-01-26T11:21:32.370Z,27.28
2019-01-26T11:22:32.374Z,27.21
2019-01-26T11:23:32.376Z,27.22
2019-01-26T11:24:32.380Z,27.28
2019-01-26T11:25:32.384Z,27.22
2019-01-26T11:26:32.385Z,27.24
2019-01-26T11:27:32.389Z,27.28
2019-01-26T11:28:32.392Z,27.32
2019-01-26T11:29:32.397Z,27.28
2019-01-26T11:30:32.401Z,27.39
2019-01-26T11:31:32.401Z,27.34
2019-01-26T11:32:32.407Z,27.34
2019-01-26T11:33:32.411Z,27.31
2019-01-26T11:34:32.414Z,27.37
2019-01-26T11:35:32.417Z,27.29
2019-01-26T11:36:32.418Z,27.39
2019-01-26T11:37:32.425Z,27.34
2019-01-26T11:38:32.426Z,27.34
2019-01-26T11:39:32.431Z,27.32
2019-01-26T11:40:32.435Z,27.31
2019-01-26T11:41:32.436Z,27.40
2019-01-26T11:42:32.439Z,27.29
2019-01-26T11:43:32.444Z,27.32
2019-01-26T11:44:32.449Z,27.32
2019-01-26T11:45:32.502Z,27.32
2019-01-26T11:46:32.454Z,27.34
2019-01-26T11:47:32.456Z,27.36
2019-01-26T11:48:32.463Z,27.34
2019-01-26T11:49:32.615Z,27.36
2019-01-26T11:50:32.467Z,27.34
2019-01-26T11:51:32.469Z,27.37
2019-01-26T11:52:32.474Z,27.31
2019-01-26T11:53:32.479Z,27.36
2019-01-26T11:54:32.481Z,27.25
2019-01-26T11:55:32.488Z,27.31
2019-01-26T11:56:32.489Z,27.34
2019-01-26T11:57:32.492Z,27.28
2019-01-26T11:58:32.495Z,27.25
2019-01-26T11:59:32.498Z,27.19
2019-01-26T12:00:32.502Z,27.18
2019-01-26T12:01:32.504Z,27.21
2019-01-26T12:02:32.557Z,27.24
2019-01-26T12:03:32.512Z,27.27
2019-01-26T12:04:32.516Z,27.24
2019-01-26T12:05:32.519Z,27.24
2019-01-26T12:06:32.522Z,27.25
2019-01-26T12:07:32.527Z,27.25
2019-01-26T12:08:32.577Z,27.24
2019-01-26T12:09:32.532Z,27.21
2019-01-26T12:10:32.534Z,27.21
2019-01-26T12:11:32.541Z,27.22
2019-01-26T12:12:32.542Z,27.21
2019-01-26T12:13:32.545Z,27.18
2019-01-26T12:14:32.546Z,27.27
2019-01-26T12:15:32.551Z,27.28
2019-01-26T12:16:32.556Z,27.32
2019-01-26T12:17:32.560Z,27.18
2019-01-26T12:18:32.562Z,27.24
2019-01-26T12:19:32.566Z,27.19
2019-01-26T12:20:32.570Z,27.27
2019-01-26T12:21:32.572Z,27.24
2019-01-26T12:22:32.579Z,27.21
2019-01-26T12:23:32.579Z,27.25
2019-01-26T12:24:32.584Z,27.17
2019-01-26T12:25:32.590Z,27.25
2019-01-26T12:26:32.594Z,27.24
2019-01-26T12:27:32.596Z,27.17
2019-01-26T12:28:32.597Z,27.21
2019-01-26T12:29:32.600Z,27.18
2019-01-26T12:30:32.604Z,27.21
2019-01-26T12:31:32.706Z,27.21
2019-01-26T12:32:32.636Z,27.19
2019-01-26T12:33:32.636Z,27.28
2019-01-26T12:34:32.616Z,27.28
2019-01-26T12:35:32.618Z,27.19
2019-01-26T12:36:32.623Z,27.21
2019-01-26T12:37:32.630Z,27.21
2019-01-26T12:38:32.629Z,27.19
2019-01-26T12:39:32.633Z,27.19
2019-01-26T12:40:32.636Z,27.28
2019-01-26T12:41:32.643Z,27.18
2019-01-26T12:42:32.642Z,27.21
2019-01-26T12:43:32.646Z,27.28
2019-01-26T12:44:32.650Z,27.22
2019-01-26T12:45:32.653Z,27.24
2019-01-26T12:46:32.652Z,27.19
2019-01-26T12:47:32.660Z,27.25
2019-01-26T12:48:32.663Z,27.17
2019-01-26T12:49:32.671Z,27.24
2019-01-26T12:50:32.671Z,27.27
2019-01-26T12:51:32.672Z,27.28
2019-01-26T12:52:32.677Z,27.22